Terminal Aerodrome Forecast
Issued by NWS

Home | Current Version | Previous Version | Text Only | Print | Product List | Glossary On
Versions: 1 2 3 4 5 6 7 8 9 10 11 12 13 14 15 16 17 18 19 20
000
FTUS41 KPBZ 260500
TAFLBE
TAF
KLBE 260520Z 2606/2706 28008KT P6SM SKC
      TEMPO 2606/2608 29012G20KT
     FM261600 28012G25KT P6SM SKC
     FM262300 27006KT P6SM SKC
      AMD NOT SKED=

USA.gov is the U.S. government's official web portal to all federal, state and local government web resources and services.